Kaltag, AK (99748)

2:45 AM AKDT on July 24, 2014 (GMT -0800)
Kaltag (PAKV) Elev 200 ft | 64.32 °N, 158.74 °W | Change Station

Current weather conditions updated 16 minutes ago

Light Rain
Light Rain
50 °F
Feels Like 50 °F
N
0
Wind Variable Wind from North

Today is forecast to be Warmer than yesterday.

Today
High -- | Low -- °F
--% Chance of Precip.
Yesterday
High -- | Low -- °F
Precip. -- in
5:14 AM 0:05 AM
Waning Crescent, 6% visible
Pressure 29.79 in
Visibility 10.0 miles
Clouds Overcast 1400 ft
Dew Point 47 °F
Humidity 89%
Rainfall 0.00 in
Snow Depth Not available.
UV 0 out of 12
Pollen Not available.
Air Quality Not available.
Flu Activity Not available.
SPECI PAKV 241029Z AUTO 00000KT 10SM -RA OVC014 10/08 A2979 RMK AO1 P0000 T01000083 TSNO

More Conditions Fewer Conditions

Pressure 29.79 in
Visibility 10.0 miles
Clouds Overcast 1400 ft
Dew Point 47 °F
Humidity 89%
Rainfall 0.00 in
Snow Depth Not available.
UV 0 out of 12
Pollen Not available.
Air Quality Not available.
Flu Activity Not available.
SPECI PAKV 241029Z AUTO 00000KT 10SM -RA OVC014 10/08 A2979 RMK AO1 P0000 T01000083 TSNO

More Conditions Fewer Conditions

10-Day Weather Forecast

Almanac

Astronomy

Jul. 24, 2014 Rise Set
Actual Time 5:14 AM AKDT 12:05 AM AKDT
Civil Twilight 3:13 AM AKDT 2:27 AM AKDT
Nautical Twilight Sun does not rise Sun does not rise
Astronomical Twilight Sun does not rise Sun does not rise
Moon 3:48 AM AKDT 10:07 PM AKDT
Length of Visible Light 23h 13m
Length of Day
18h 51m
Tomorrow will be 6m 29s shorter.
Waning Crescent, 6% of the Moon is Illuminated
Today
Waning Crescent
Jul 26
New
Aug 3
First Quarter
Aug 10
Full
Aug 17
Last Quarter

Today's Extremes

State Highs State Lows

Community

WunderPhotos

Upload Photos

1,736,966 photos uploaded!

Nearby

Snow Depth

Station Depth Elevation
Pargon Creek 0 in 300 ft
Rocky Point 2 in 500 ft
Gobblers Knob 0 in 2030 ft
Susitna Valley High 2 in 375 ft
Coldfoot 1 in 1040 ft

Earthquake Activity

City Distance Mag. Time & Date
No recent earthquake activity has been reported nearby.
Minimum magnitude displayed is 2.5.

Coastal Water Temperatures

Place Temperature
No Stations Reporting

Nearby Weather Stations

Station Location Temp. Windchill Dew Point Humidity Wind Precip. Elev Updated Type
RAWS KAIYUH AK, Kaltag, AK 49 °F 46 °F 47 °F 94% South  at  8 mph 0.01 in / hr 109 ft 1:21 AM AKDT MADIS

Show More Stations Show Fewer Stations